Time;durP1;ratioP1;P1;durP2;ratioP2;P2;SDS_P1;SDS_P2;PMS_P1;PMS_P2;Temp;Humidity;BMP_temperature;BMP_pressure;BME280_temperature;BME280_humidity;BME280_pressure;Samples;Min_cycle;Max_cycle;Signal;HPM_P1;HPM_P2
2023/12/21 00:01:40;;;;;;;8.60;7.70;;;;;;;6.30;100.00;99051.67;86837;275;135897;-71
2023/12/21 00:03:43;;;;;;;12.70;8.10;;;;;;;6.27;100.00;99048.91;86743;272;25045;-69
2023/12/21 00:05:45;;;;;;;9.40;7.60;;;;;;;6.27;100.00;99051.97;87009;277;137700;-69
2023/12/21 00:07:46;;;;;;;8.90;6.40;;;;;;;6.32;100.00;99052.42;87174;281;24200;-71
2023/12/21 00:09:49;;;;;;;6.20;5.70;;;;;;;6.35;100.00;99054.72;87085;276;138733;-71
2023/12/21 00:11:50;;;;;;;6.50;5.40;;;;;;;6.27;100.00;99053.11;87080;269;22603;-70
2023/12/21 00:13:52;;;;;;;6.10;5.60;;;;;;;6.25;100.00;99052.93;86994;281;135931;-69
2023/12/21 00:15:55;;;;;;;8.70;6.90;;;;;;;6.21;100.00;99054.63;87117;273;22690;-71
2023/12/21 00:17:57;;;;;;;12.40;10.80;;;;;;;6.16;100.00;99056.89;86917;270;135525;-70
2023/12/21 00:19:58;;;;;;;11.70;9.40;;;;;;;6.08;100.00;99058.66;87092;273;22557;-70
2023/12/21 00:22:00;;;;;;;9.30;7.70;;;;;;;6.05;100.00;99062.13;87174;281;136159;-72
2023/12/21 00:24:03;;;;;;;7.70;6.90;;;;;;;6.03;100.00;99065.73;87099;277;25304;-71
2023/12/21 00:26:06;;;;;;;10.30;8.30;;;;;;;6.00;100.00;99066.04;86923;275;25201;-71
2023/12/21 00:28:08;;;;;;;16.50;13.10;;;;;;;5.99;100.00;99066.35;86990;273;136623;-70
2023/12/21 00:30:11;;;;;;;28.80;19.60;;;;;;;6.03;100.00;99061.45;87160;281;22513;-70
2023/12/21 00:32:12;;;;;;;22.50;17.10;;;;;;;6.02;100.00;99064.09;87241;281;136032;-73
2023/12/21 00:34:14;;;;;;;13.40;10.80;;;;;;;5.94;100.00;99066.13;87064;273;25345;-71
2023/12/21 00:36:16;;;;;;;8.90;5.60;;;;;;;5.88;100.00;99059.42;86830;273;136231;-70
2023/12/21 00:38:18;;;;;;;6.40;5.70;;;;;;;5.86;100.00;99061.48;87136;273;24121;-70
2023/12/21 00:40:20;;;;;;;5.30;4.80;;;;;;;5.85;100.00;99060.33;86759;273;136157;-71
2023/12/21 00:42:23;;;;;;;8.70;6.70;;;;;;;5.87;100.00;99058.92;86859;274;22860;-70
2023/12/21 00:44:25;;;;;;;14.60;10.70;;;;;;;5.89;100.00;99060.35;86715;273;136340;-70
2023/12/21 00:46:27;;;;;;;12.00;10.10;;;;;;;5.92;100.00;99055.23;87045;281;24778;-71
2023/12/21 00:48:29;;;;;;;8.70;7.70;;;;;;;5.95;100.00;99058.11;86842;273;136721;-72
2023/12/21 00:50:31;;;;;;;6.30;4.30;;;;;;;5.92;100.00;99052.05;87087;273;22567;-71
2023/12/21 00:52:33;;;;;;;4.20;3.80;;;;;;;5.88;100.00;99039.98;86980;280;139014;-70
2023/12/21 00:54:34;;;;;;;5.80;5.10;;;;;;;5.95;100.00;99049.27;86989;273;22570;-69
2023/12/21 00:56:36;;;;;;;4.70;4.30;;;;;;;5.90;100.00;99045.44;86898;280;136981;-70
2023/12/21 00:58:39;;;;;;;6.60;5.00;;;;;;;5.86;100.00;99045.41;87194;273;25345;-69
2023/12/21 01:00:42;;;;;;;6.20;5.30;;;;;;;5.85;100.00;99047.47;87203;273;135617;-70
2023/12/21 01:02:44;;;;;;;7.40;6.60;;;;;;;5.84;100.00;99044.55;87125;270;22560;-70
2023/12/21 01:04:45;;;;;;;9.30;7.50;;;;;;;5.81;100.00;99045.08;86947;266;136343;-71
2023/12/21 01:06:47;;;;;;;9.00;7.30;;;;;;;5.78;100.00;99042.63;87080;269;23734;-70
2023/12/21 01:08:49;;;;;;;6.60;5.10;;;;;;;5.82;100.00;99038.36;87124;273;137660;-70
2023/12/21 01:10:51;;;;;;;4.30;3.90;;;;;;;5.86;100.00;99035.32;87280;269;25282;-71
2023/12/21 01:12:53;;;;;;;3.10;2.80;;;;;;;5.88;100.00;99034.56;87025;272;136422;-71
2023/12/21 01:14:55;;;;;;;2.40;2.20;;;;;;;5.88;100.00;99037.73;87108;272;24199;-70
2023/12/21 01:16:56;;;;;;;3.20;2.50;;;;;;;5.89;100.00;99042.19;87080;277;136149;-71
2023/12/21 01:18:58;;;;;;;4.00;3.70;;;;;;;5.92;100.00;99036.47;87020;282;23731;-69
2023/12/21 01:21:01;;;;;;;3.80;3.50;;;;;;;5.90;100.00;99042.77;86944;273;137302;-70
2023/12/21 01:23:02;;;;;;;4.20;3.70;;;;;;;5.86;100.00;99041.55;87129;269;24013;-70
2023/12/21 01:25:05;;;;;;;4.00;3.60;;;;;;;5.82;100.00;99046.95;87005;280;135666;-71
2023/12/21 01:27:07;;;;;;;3.00;2.70;;;;;;;5.75;100.00;99046.77;87236;276;22570;-69
2023/12/21 01:29:22;;;;;;;4.40;3.90;;;;;;;5.73;100.00;99049.19;87098;273;136984;-70
2023/12/21 01:31:25;;;;;;;3.50;3.20;;;;;;;5.58;100.00;99048.63;87179;273;22575;-71
2023/12/21 01:33:29;;;;;;;3.70;3.30;;;;;;;5.58;100.00;99053.02;87094;273;137775;-70
2023/12/21 01:35:30;;;;;;;2.30;2.20;;;;;;;5.62;100.00;99053.44;87108;273;22645;-71
2023/12/21 01:37:33;;;;;;;3.10;2.90;;;;;;;5.64;100.00;99056.87;87045;273;136710;-70
2023/12/21 01:39:35;;;;;;;5.40;4.70;;;;;;;5.56;100.00;99051.55;86996;265;25528;-71
2023/12/21 01:41:37;;;;;;;8.30;7.10;;;;;;;5.53;100.00;99057.70;86992;281;136497;-70
2023/12/21 01:43:39;;;;;;;6.60;5.90;;;;;;;5.50;100.00;99057.90;87140;273;23683;-69
2023/12/21 01:45:41;;;;;;;5.40;4.80;;;;;;;5.51;100.00;99057.06;87092;281;137729;-71
2023/12/21 01:47:45;;;;;;;4.20;3.80;;;;;;;5.56;100.00;99054.23;87196;269;23868;-69
2023/12/21 01:49:48;;;;;;;4.70;4.30;;;;;;;5.59;100.00;99053.27;87103;278;135619;-70
2023/12/21 01:51:50;;;;;;;2.90;2.70;;;;;;;5.60;100.00;99055.61;87247;281;22565;-70
2023/12/21 01:53:54;;;;;;;2.40;2.30;;;;;;;5.60;100.00;99056.34;86911;274;135377;-71
2023/12/21 01:55:56;;;;;;;2.20;2.00;;;;;;;5.60;100.00;99057.20;87175;277;22645;-70
2023/12/21 01:57:58;;;;;;;2.60;2.40;;;;;;;5.57;100.00;99051.60;87282;268;135911;-71
2023/12/21 02:00:01;;;;;;;3.50;3.10;;;;;;;5.56;100.00;99054.75;87273;268;25227;-70
2023/12/21 02:02:05;;;;;;;3.90;3.60;;;;;;;5.56;100.00;99052.77;87206;273;22662;-68
2023/12/21 02:04:08;;;;;;;3.60;3.10;;;;;;;5.57;100.00;99045.00;86998;273;136729;-71
2023/12/21 02:06:10;;;;;;;3.00;2.80;;;;;;;5.60;100.00;99046.33;87217;277;22543;-72
2023/12/21 02:08:13;;;;;;;3.00;2.60;;;;;;;5.57;100.00;99041.42;86980;277;136247;-71
2023/12/21 02:10:15;;;;;;;2.10;1.90;;;;;;;5.55;100.00;99036.89;87098;273;22651;-70
2023/12/21 02:12:17;;;;;;;1.90;1.80;;;;;;;5.46;100.00;99030.17;87095;280;135952;-70
2023/12/21 02:14:19;;;;;;;3.70;2.00;;;;;;;5.56;99.97;99040.57;87133;281;22565;-69
2023/12/21 02:16:32;;;;;;;1.50;1.40;;;;;;;5.56;99.82;99040.61;87042;269;137410;-71
2023/12/21 02:18:34;;;;;;;1.60;1.50;;;;;;;5.55;99.47;99039.20;87254;273;22581;-71
2023/12/21 02:20:39;;;;;;;2.10;2.00;;;;;;;5.58;99.34;99037.00;87075;277;136137;-72
2023/12/21 02:22:42;;;;;;;3.20;2.90;;;;;;;5.60;98.76;99038.28;87205;273;22562;-70
2023/12/21 02:24:45;;;;;;;5.00;4.30;;;;;;;5.61;98.68;99039.64;87205;280;137071;-70
2023/12/21 02:26:47;;;;;;;3.90;3.50;;;;;;;5.59;98.93;99041.85;87200;280;22849;-71
2023/12/21 02:28:48;;;;;;;5.40;3.00;;;;;;;5.65;98.92;99038.70;87022;276;135862;-71
2023/12/21 02:30:50;;;;;;;4.00;2.90;;;;;;;5.65;98.09;99042.29;87140;273;22661;-68
2023/12/21 02:32:52;;;;;;;3.00;2.70;;;;;;;5.50;98.58;99027.61;86996;273;135858;-70
2023/12/21 02:34:54;;;;;;;2.80;2.40;;;;;;;5.51;98.80;99037.50;87062;269;22565;-71
2023/12/21 02:36:56;;;;;;;3.10;2.90;;;;;;;5.50;99.05;99037.13;87103;277;135815;-71
2023/12/21 02:38:58;;;;;;;4.60;3.70;;;;;;;5.50;99.05;99035.50;87168;269;24043;-70
2023/12/21 02:40:59;;;;;;;5.00;4.30;;;;;;;5.50;98.96;99029.89;86929;279;136148;-69
2023/12/21 02:43:01;;;;;;;3.60;3.30;;;;;;;5.51;98.48;99031.00;86900;275;22909;-70
2023/12/21 02:45:04;;;;;;;2.90;2.70;;;;;;;5.52;98.13;99031.94;87044;269;136940;-69
2023/12/21 02:47:06;;;;;;;2.80;2.60;;;;;;;5.51;97.83;99038.39;87078;269;25246;-71
2023/12/21 02:49:07;;;;;;;3.40;3.10;;;;;;;5.57;97.25;99039.05;87006;273;137828;-70
2023/12/21 02:51:09;;;;;;;2.60;2.50;;;;;;;5.61;96.75;99041.91;87192;281;22943;-69
2023/12/21 02:53:11;;;;;;;3.00;2.60;;;;;;;5.60;96.77;99043.13;86878;278;135694;-74
2023/12/21 02:55:13;;;;;;;3.00;2.50;;;;;;;5.56;96.96;99039.05;87129;281;22671;-70
2023/12/21 02:57:15;;;;;;;2.80;2.60;;;;;;;5.57;96.95;99036.47;86979;280;136999;-72
2023/12/21 02:59:17;;;;;;;2.60;2.40;;;;;;;5.65;96.35;99038.05;87178;280;25251;-71
2023/12/21 03:01:19;;;;;;;4.10;2.80;;;;;;;5.70;95.76;99035.57;87070;280;135967;-69
2023/12/21 03:03:20;;;;;;;2.90;2.70;;;;;;;5.68;95.94;99035.34;87239;273;24540;-71
2023/12/21 03:05:22;;;;;;;2.90;2.70;;;;;;;5.62;95.39;99029.98;87061;269;135982;-70
2023/12/21 03:07:24;;;;;;;4.20;3.70;;;;;;;5.56;95.48;99028.80;87026;277;25083;-73
2023/12/21 03:09:26;;;;;;;3.10;2.80;;;;;;;5.52;95.61;99029.00;87052;273;137186;-71
2023/12/21 03:11:28;;;;;;;3.50;3.20;;;;;;;5.35;96.30;99030.70;87223;280;24134;-70
2023/12/21 03:13:32;;;;;;;4.40;3.80;;;;;;;5.37;96.16;99029.22;87080;269;136493;-70
2023/12/21 03:15:35;;;;;;;3.10;2.80;;;;;;;5.34;96.20;99033.20;87069;274;24859;-69
2023/12/21 03:17:37;;;;;;;3.30;3.10;;;;;;;5.30;96.42;99030.23;86989;274;135707;-73
2023/12/21 03:19:38;;;;;;;3.40;3.10;;;;;;;5.22;96.78;99026.75;87172;273;25130;-70
2023/12/21 03:21:40;;;;;;;3.00;2.80;;;;;;;5.13;97.14;99028.61;86990;280;135750;-71
2023/12/21 03:23:42;;;;;;;2.70;2.50;;;;;;;5.03;97.48;99027.33;87128;273;22641;-69
2023/12/21 03:25:44;;;;;;;2.70;2.50;;;;;;;4.95;97.74;99029.19;86956;273;136375;-71
2023/12/21 03:27:47;;;;;;;3.80;2.50;;;;;;;4.93;98.01;99027.77;87191;273;25133;-69
2023/12/21 03:29:49;;;;;;;2.90;2.70;;;;;;;4.88;98.14;99019.17;87230;274;136588;-71
2023/12/21 03:31:52;;;;;;;3.40;2.60;;;;;;;4.84;98.50;99019.36;87205;274;22570;-70
2023/12/21 03:33:54;;;;;;;3.40;3.20;;;;;;;4.82;98.48;99019.43;86982;281;136002;-73
2023/12/21 03:35:56;;;;;;;5.50;3.40;;;;;;;4.77;98.92;99017.85;87158;277;22583;-72
2023/12/21 03:37:58;;;;;;;2.90;2.60;;;;;;;4.69;99.02;99014.95;86935;270;135819;-69
2023/12/21 03:39:59;;;;;;;3.20;2.90;;;;;;;4.62;99.42;99013.73;87089;274;22579;-70
2023/12/21 03:42:02;;;;;;;8.30;3.60;;;;;;;4.55;99.74;99015.80;87832;277;135578;-70
2023/12/21 03:44:04;;;;;;;4.10;3.70;;;;;;;4.53;99.91;99019.39;86975;274;135987;-72
2023/12/21 03:46:09;;;;;;;3.80;2.90;;;;;;;4.51;99.94;99017.14;87052;281;22654;-70
2023/12/21 03:48:12;;;;;;;6.30;3.30;;;;;;;4.53;99.89;99020.22;86850;281;136530;-69
2023/12/21 03:50:13;;;;;;;3.70;3.30;;;;;;;4.57;99.87;99018.64;87100;281;25228;-69
2023/12/21 03:52:15;;;;;;;3.20;2.80;;;;;;;4.57;99.51;99016.92;86933;273;136684;-70
2023/12/21 03:54:17;;;;;;;3.10;2.00;;;;;;;4.57;99.52;99014.14;87197;281;25101;-71
2023/12/21 03:56:19;;;;;;;4.90;3.00;;;;;;;4.57;99.52;99015.48;87117;290;136548;-72
2023/12/21 03:58:20;;;;;;;3.20;2.40;;;;;;;4.60;99.46;99019.73;87067;273;22570;-72
2023/12/21 04:00:23;;;;;;;4.00;2.50;;;;;;;4.62;99.19;99019.69;87004;269;136226;-73
2023/12/21 04:02:25;;;;;;;2.10;2.00;;;;;;;4.59;99.30;99024.60;87062;274;22588;-71
2023/12/21 04:04:27;;;;;;;3.60;2.70;;;;;;;4.57;99.38;99029.80;86843;273;135878;-72
2023/12/21 04:06:32;;;;;;;2.60;2.40;;;;;;;4.55;99.40;99030.67;86936;277;24014;-70
2023/12/21 04:08:34;;;;;;;3.00;2.30;;;;;;;4.43;99.45;99019.76;86990;274;135943;-71
2023/12/21 04:10:36;;;;;;;3.00;2.60;;;;;;;4.49;99.40;99034.04;87077;282;25387;-71
2023/12/21 04:12:38;;;;;;;3.00;2.40;;;;;;;4.45;99.62;99032.33;87042;273;135919;-72
2023/12/21 04:14:40;;;;;;;1.90;1.80;;;;;;;4.44;99.87;99034.29;87060;277;24014;-69
2023/12/21 04:16:41;;;;;;;2.10;1.90;;;;;;;4.41;99.73;99036.16;86965;269;136159;-72
2023/12/21 04:18:43;;;;;;;2.00;1.80;;;;;;;4.38;99.77;99036.52;87100;267;22571;-69
2023/12/21 04:20:46;;;;;;;3.30;2.40;;;;;;;4.39;99.87;99039.12;87047;273;137311;-72
2023/12/21 04:22:48;;;;;;;2.10;1.30;;;;;;;4.39;99.93;99034.18;87056;281;24001;-72
2023/12/21 04:24:52;;;;;;;2.70;1.50;;;;;;;4.40;99.91;99034.20;87075;271;137756;-71
2023/12/21 04:26:53;;;;;;;3.60;1.70;;;;;;;4.40;99.96;99032.32;87196;278;22572;-71
2023/12/21 04:28:55;;;;;;;3.90;2.80;;;;;;;4.40;100.00;99032.13;86965;278;137015;-70
2023/12/21 04:30:57;;;;;;;1.90;1.70;;;;;;;4.40;99.99;99038.23;87062;272;23887;-73
2023/12/21 04:32:58;;;;;;;2.80;2.60;;;;;;;4.38;100.00;99040.15;86918;280;135878;-70
2023/12/21 04:35:00;;;;;;;3.10;2.40;;;;;;;4.33;100.00;99041.59;87123;267;22580;-73
2023/12/21 04:37:02;;;;;;;3.10;2.40;;;;;;;4.22;100.00;99027.38;86976;267;136032;-69
2023/12/21 04:39:04;;;;;;;3.20;2.60;;;;;;;4.27;100.00;99041.63;87003;271;22538;-69
2023/12/21 04:41:06;;;;;;;2.90;2.40;;;;;;;4.25;100.00;99045.33;87045;276;136591;-70
2023/12/21 04:43:08;;;;;;;3.20;2.80;;;;;;;4.18;100.00;99046.51;87079;273;25185;-70
2023/12/21 04:45:10;;;;;;;6.00;3.60;;;;;;;4.13;100.00;99048.99;86946;271;137084;-70
2023/12/21 04:47:12;;;;;;;5.10;3.00;;;;;;;4.12;100.00;99054.90;87043;275;22567;-71
2023/12/21 04:49:26;;;;;;;6.10;4.10;;;;;;;4.12;100.00;99052.91;86916;272;136809;-70
2023/12/21 04:51:29;;;;;;;4.00;3.60;;;;;;;4.13;100.00;99052.02;87132;272;25083;-72
2023/12/21 04:53:30;;;;;;;3.60;3.20;;;;;;;4.13;100.00;99050.81;86892;279;137715;-71
2023/12/21 04:55:33;;;;;;;5.60;3.30;;;;;;;4.13;100.00;99052.15;87296;271;22561;-72
2023/12/21 04:57:37;;;;;;;7.00;3.70;;;;;;;4.14;100.00;99052.95;87014;278;136349;-73
2023/12/21 04:59:40;;;;;;;4.10;3.80;;;;;;;4.12;100.00;99054.05;87070;268;25127;-71
2023/12/21 05:01:42;;;;;;;4.30;3.90;;;;;;;4.09;100.00;99048.40;86848;271;136113;-73
2023/12/21 05:03:44;;;;;;;5.10;4.60;;;;;;;4.06;100.00;99053.42;86888;268;24821;-70
2023/12/21 05:05:46;;;;;;;9.00;4.30;;;;;;;4.17;100.00;99046.95;87016;274;136270;-71
2023/12/21 05:07:48;;;;;;;4.90;4.30;;;;;;;4.20;100.00;99044.08;87220;268;22578;-69
2023/12/21 05:09:50;;;;;;;4.50;4.00;;;;;;;4.20;100.00;99047.50;86830;271;136028;-69
2023/12/21 05:11:53;;;;;;;5.20;4.70;;;;;;;4.22;100.00;99049.98;86886;271;23805;-73
2023/12/21 05:13:55;;;;;;;7.30;5.10;;;;;;;4.16;100.00;99047.61;86844;279;136589;-71
2023/12/21 05:15:57;;;;;;;5.80;5.00;;;;;;;4.12;100.00;99050.31;86963;271;22608;-72
2023/12/21 05:17:59;;;;;;;6.30;4.80;;;;;;;4.16;100.00;99053.77;86866;271;136465;-72
2023/12/21 05:20:02;;;;;;;7.70;5.80;;;;;;;4.16;100.00;99056.91;87211;271;22628;-72
2023/12/21 05:22:05;;;;;;;6.00;5.40;;;;;;;4.16;100.00;99050.05;87095;271;22825;-73
2023/12/21 05:24:07;;;;;;;7.60;5.10;;;;;;;4.15;100.00;99049.07;86925;263;137572;-71
2023/12/21 05:26:12;;;;;;;10.30;7.10;;;;;;;4.12;100.00;99050.18;87158;271;22587;-72
2023/12/21 05:28:14;;;;;;;7.30;6.00;;;;;;;4.05;100.00;99055.32;87057;280;136842;-69
2023/12/21 05:30:19;;;;;;;8.50;7.50;;;;;;;4.05;100.00;99050.17;86897;268;23750;-72
2023/12/21 05:32:21;;;;;;;13.60;7.80;;;;;;;4.08;100.00;99052.02;86902;269;136241;-70
2023/12/21 05:34:25;;;;;;;10.90;7.70;;;;;;;4.02;100.00;99051.98;87233;278;25242;-72
2023/12/21 05:36:27;;;;;;;10.60;7.70;;;;;;;4.03;100.00;99054.44;87024;278;136944;-72
2023/12/21 05:38:29;;;;;;;14.40;8.50;;;;;;;4.02;100.00;99056.06;87161;267;24052;-70
2023/12/21 05:40:31;;;;;;;10.50;8.20;;;;;;;4.00;100.00;99055.95;86992;287;136891;-68
2023/12/21 05:42:33;;;;;;;10.40;7.90;;;;;;;3.84;100.00;99052.89;87106;273;22530;-70
2023/12/21 05:44:35;;;;;;;8.60;7.40;;;;;;;3.79;100.00;99048.10;86916;276;136924;-70
2023/12/21 05:46:37;;;;;;;9.60;7.80;;;;;;;3.79;100.00;99049.72;87019;273;23442;-71
2023/12/21 05:48:39;;;;;;;10.00;7.70;;;;;;;3.78;100.00;99047.67;86944;273;136694;-71
2023/12/21 05:50:40;;;;;;;9.80;7.80;;;;;;;3.77;100.00;99048.52;87036;273;22561;-69
2023/12/21 05:52:43;;;;;;;9.80;8.30;;;;;;;3.78;100.00;99053.36;86891;271;137904;-71
2023/12/21 05:54:45;;;;;;;11.40;8.00;;;;;;;3.75;100.00;99055.61;87120;276;22574;-71
2023/12/21 05:56:47;;;;;;;11.30;9.30;;;;;;;3.73;100.00;99056.98;86949;263;139313;-71
2023/12/21 05:58:50;;;;;;;14.70;9.40;;;;;;;3.68;100.00;99052.00;87059;271;22578;-69
2023/12/21 06:00:54;;;;;;;9.40;8.30;;;;;;;3.66;100.00;99050.34;87072;269;136917;-68
2023/12/21 06:02:56;;;;;;;9.60;7.70;;;;;;;3.67;100.00;99053.29;87734;267;26242;-71
2023/12/21 06:04:58;;;;;;;10.70;8.80;;;;;;;3.63;100.00;99039.09;86877;271;136599;-71
2023/12/21 06:07:00;;;;;;;10.60;8.40;;;;;;;3.72;100.00;99052.92;87019;267;25082;-70
2023/12/21 06:09:05;;;;;;;12.30;9.60;;;;;;;3.74;100.00;99058.75;87055;280;137095;-70
2023/12/21 06:11:07;;;;;;;13.40;9.10;;;;;;;3.77;100.00;99059.59;87054;273;22567;-71
2023/12/21 06:13:08;;;;;;;12.50;9.00;;;;;;;3.80;100.00;99061.17;86892;276;138246;-70
2023/12/21 06:15:10;;;;;;;9.60;8.60;;;;;;;3.82;100.00;99060.96;87014;280;22641;-70
2023/12/21 06:17:14;;;;;;;10.30;9.00;;;;;;;3.87;100.00;99067.02;87065;267;136648;-73
2023/12/21 06:19:16;;;;;;;10.90;9.00;;;;;;;3.87;100.00;99064.25;87443;271;25115;-71
2023/12/21 06:21:19;;;;;;;11.20;9.60;;;;;;;3.89;100.00;99064.08;86887;267;137639;-70
2023/12/21 06:23:20;;;;;;;11.20;8.20;;;;;;;3.88;100.00;99057.34;87067;267;25256;-70
2023/12/21 06:25:22;;;;;;;11.90;8.50;;;;;;;3.87;100.00;99056.05;86907;271;136629;-72
2023/12/21 06:27:24;;;;;;;9.90;8.70;;;;;;;3.86;100.00;99058.27;87028;271;23025;-69
2023/12/21 06:29:28;;;;;;;9.30;8.20;;;;;;;3.84;100.00;99064.61;86834;271;137394;-71
2023/12/21 06:31:30;;;;;;;8.80;7.60;;;;;;;3.74;100.00;99054.64;87031;276;23997;-69
2023/12/21 06:33:35;;;;;;;;;;;;;;;3.84;100.00;99069.39;86916;279;136818;-68
2023/12/21 06:35:37;;;;;;;11.20;8.70;;;;;;;3.84;100.00;99070.38;87687;267;26886;-74
2023/12/21 06:37:39;;;;;;;11.00;8.70;;;;;;;3.87;100.00;99071.84;86927;271;137958;-73
2023/12/21 06:39:41;;;;;;;8.90;8.00;;;;;;;3.88;100.00;99072.38;86934;276;24475;-70
2023/12/21 06:41:44;;;;;;;9.90;8.60;;;;;;;3.83;100.00;99075.82;86805;275;137515;-70
2023/12/21 06:43:46;;;;;;;13.00;10.30;;;;;;;3.82;100.00;99081.23;87003;271;22586;-73
2023/12/21 06:45:49;;;;;;;15.00;10.00;;;;;;;3.81;100.00;99082.56;86855;273;136875;-74
2023/12/21 06:47:51;;;;;;;11.40;9.60;;;;;;;3.81;100.00;99083.45;87074;280;25108;-71
2023/12/21 06:49:52;;;;;;;13.20;8.60;;;;;;;3.79;100.00;99082.64;86778;282;139010;-70
2023/12/21 06:51:54;;;;;;;13.00;9.60;;;;;;;3.74;100.00;99075.05;86731;271;23935;-68
2023/12/21 06:53:56;;;;;;;16.60;10.10;;;;;;;3.73;100.00;99072.63;86901;278;136865;-72
2023/12/21 06:55:58;;;;;;;11.80;8.90;;;;;;;3.72;100.00;99069.17;86938;271;22576;-70
2023/12/21 06:58:20;;;;;;;14.60;10.00;;;;;;;3.66;100.00;99069.86;86994;279;22568;-70
2023/12/21 07:00:22;;;;;;;12.70;10.70;;;;;;;3.68;100.00;99071.47;86862;271;136908;-68
2023/12/21 07:02:25;;;;;;;11.60;8.70;;;;;;;3.69;100.00;99069.95;86994;277;24056;-71
2023/12/21 07:04:28;;;;;;;16.70;9.80;;;;;;;3.70;100.00;99075.13;86910;280;136627;-70
2023/12/21 07:06:30;;;;;;;16.00;10.40;;;;;;;3.72;100.00;99080.38;86952;279;22815;-70
2023/12/21 07:08:32;;;;;;;12.60;9.50;;;;;;;3.78;100.00;99079.58;86860;267;138471;-73
2023/12/21 07:10:34;;;;;;;16.70;9.10;;;;;;;3.84;100.00;99080.75;86877;278;22600;-71
2023/12/21 07:12:35;;;;;;;14.20;9.60;;;;;;;3.88;100.00;99079.64;86839;276;136524;-70
2023/12/21 07:14:39;;;;;;;15.10;9.70;;;;;;;3.92;100.00;99080.27;87006;267;22547;-70
2023/12/21 07:16:41;;;;;;;18.40;10.70;;;;;;;3.94;100.00;99078.77;87024;272;136237;-69
2023/12/21 07:18:43;;;;;;;18.70;11.90;;;;;;;3.92;100.00;99082.39;87133;276;22657;-71
2023/12/21 07:20:45;;;;;;;15.30;11.70;;;;;;;3.91;100.00;99080.66;86864;278;136272;-71
2023/12/21 07:22:48;;;;;;;15.50;12.10;;;;;;;3.91;100.00;99080.70;87347;267;22572;-70
2023/12/21 07:24:51;;;;;;;17.90;12.00;;;;;;;3.93;100.00;99079.97;86728;280;136804;-70
2023/12/21 07:26:53;;;;;;;13.90;11.00;;;;;;;3.97;100.00;99080.04;86580;267;543096;-70
2023/12/21 07:28:54;;;;;;;13.80;10.30;;;;;;;4.00;100.00;99081.09;86754;271;141321;-70
2023/12/21 07:30:56;;;;;;;12.00;10.60;;;;;;;4.02;100.00;99073.06;86883;271;23018;-72
2023/12/21 07:32:58;;;;;;;11.50;9.90;;;;;;;4.05;100.00;99074.66;87121;268;137175;-71
2023/12/21 07:35:00;;;;;;;14.90;11.30;;;;;;;4.09;100.00;99078.71;86894;271;22575;-69
2023/12/21 07:37:02;;;;;;;13.90;11.50;;;;;;;4.14;100.00;99076.86;87143;271;137212;-71
2023/12/21 07:39:04;;;;;;;13.90;10.90;;;;;;;4.19;100.00;99081.67;87045;276;24065;-71
2023/12/21 07:41:10;;;;;;;15.00;11.50;;;;;;;4.24;100.00;99075.61;86875;271;138001;-69
2023/12/21 07:43:12;;;;;;;18.90;13.00;;;;;;;4.26;100.00;99077.13;86965;275;22570;-77
2023/12/21 07:45:14;;;;;;;17.40;11.70;;;;;;;4.31;100.00;99076.58;87195;267;137760;-69
2023/12/21 07:47:16;;;;;;;16.60;11.80;;;;;;;4.36;100.00;99077.60;86821;271;25291;-71
2023/12/21 07:49:18;;;;;;;15.50;12.60;;;;;;;4.40;100.00;99074.69;86762;280;136136;-71
2023/12/21 07:51:20;;;;;;;21.90;13.20;;;;;;;4.41;100.00;99074.75;87011;278;22553;-73
2023/12/21 07:53:22;;;;;;;17.90;14.20;;;;;;;4.43;100.00;99077.79;86752;271;136261;-74
2023/12/21 07:55:24;;;;;;;16.80;13.80;;;;;;;4.46;100.00;99075.73;86995;279;26213;-70
2023/12/21 07:57:26;;;;;;;18.90;13.50;;;;;;;4.48;100.00;99073.24;86843;279;137053;-72
2023/12/21 07:59:27;;;;;;;19.50;13.40;;;;;;;4.53;100.00;99071.25;87008;280;25072;-69
2023/12/21 08:01:33;;;;;;;16.10;12.00;;;;;;;4.57;100.00;99067.28;86832;264;136984;-74
2023/12/21 08:03:34;;;;;;;;;;;;;;;4.61;100.00;99062.74;87001;267;27100;-72
2023/12/21 08:05:36;;;;;;;17.20;13.00;;;;;;;4.63;100.00;99061.23;86823;272;123164;-71
2023/12/21 08:07:39;;;;;;;18.50;13.10;;;;;;;4.65;100.00;99063.25;86886;277;22713;-72
2023/12/21 08:09:41;;;;;;;21.90;12.90;;;;;;;4.69;100.00;99066.23;87137;273;137146;-72
2023/12/21 08:11:43;;;;;;;16.10;12.70;;;;;;;4.74;100.00;99066.44;86877;273;22609;-75
2023/12/21 08:13:45;;;;;;;20.10;13.20;;;;;;;4.80;100.00;99064.69;86856;276;137302;-73
2023/12/21 08:15:47;;;;;;;21.30;15.70;;;;;;;4.86;100.00;99060.65;86820;273;23616;-71
2023/12/21 08:17:55;;;;;;;23.00;15.50;;;;;;;4.89;100.00;99061.68;86922;273;137012;-70
2023/12/21 08:19:57;;;;;;;21.30;15.80;;;;;;;4.91;100.00;99056.62;87032;268;24287;-71
2023/12/21 08:22:00;;;;;;;21.90;15.80;;;;;;;4.92;100.00;99056.80;89764;275;137590;-73
2023/12/21 08:24:03;;;;;;;18.60;15.40;;;;;;;4.95;100.00;99054.00;89914;267;23018;-72
2023/12/21 08:26:06;;;;;;;17.70;13.70;;;;;;;5.01;100.00;99053.60;89992;264;22830;-76
2023/12/21 08:28:08;;;;;;;16.50;14.70;;;;;;;5.10;100.00;99050.20;89821;267;159444;-74
2023/12/21 08:30:12;;;;;;;16.90;14.40;;;;;;;5.21;100.00;99048.02;86902;277;24129;-69
2023/12/21 08:32:14;;;;;;;16.30;14.10;;;;;;;5.30;100.00;99045.11;87150;279;137892;-72
2023/12/21 08:34:16;;;;;;;15.10;13.40;;;;;;;5.41;100.00;99043.38;87037;271;25221;-72
2023/12/21 08:36:19;;;;;;;17.80;14.20;;;;;;;5.49;100.00;99034.80;86715;279;137351;-73
2023/12/21 08:38:21;;;;;;;17.20;14.40;;;;;;;5.55;100.00;99032.88;87082;276;25223;-72
2023/12/21 08:40:23;;;;;;;15.50;13.90;;;;;;;5.55;100.00;99027.91;86985;267;136532;-73
2023/12/21 08:42:26;;;;;;;20.20;14.70;;;;;;;5.52;100.00;99022.45;87096;275;22574;-74
2023/12/21 08:44:28;;;;;;;22.00;15.70;;;;;;;5.49;100.00;99019.45;86954;271;136231;-73
2023/12/21 08:46:34;;;;;;;20.80;15.30;;;;;;;5.47;100.00;99018.30;87003;271;22565;-73
2023/12/21 08:48:35;;;;;;;20.50;14.30;;;;;;;5.45;100.00;99012.31;86807;269;136067;-74
2023/12/21 08:50:37;;;;;;;16.90;13.60;;;;;;;5.44;100.00;99012.35;86832;279;25223;-72
2023/12/21 08:52:40;;;;;;;15.20;12.90;;;;;;;5.45;100.00;99010.90;87170;267;137059;-72
2023/12/21 08:54:43;;;;;;;16.00;14.10;;;;;;;5.50;100.00;99010.86;86823;273;25086;-72
2023/12/21 08:56:45;;;;;;;19.60;14.80;;;;;;;5.57;100.00;99007.88;86861;280;138003;-73
2023/12/21 08:58:47;;;;;;;20.30;13.90;;;;;;;5.66;100.00;99005.08;86906;276;22566;-73
2023/12/21 09:00:49;;;;;;;14.90;13.30;;;;;;;5.77;100.00;99005.47;86897;269;136953;-70
2023/12/21 09:02:51;;;;;;;19.20;14.10;;;;;;;5.88;100.00;99002.84;87093;268;23667;-71
2023/12/21 09:04:57;;;;;;;22.90;13.50;;;;;;;5.97;100.00;98997.02;86819;265;136422;-73
2023/12/21 09:07:00;;;;;;;17.40;14.00;;;;;;;6.00;100.00;98995.36;87254;268;24872;-71
2023/12/21 09:09:03;;;;;;;18.40;15.30;;;;;;;6.00;100.00;98990.30;86874;271;136365;-71
2023/12/21 09:11:05;;;;;;;16.60;14.00;;;;;;;5.98;100.00;98992.69;87612;271;25079;-72
2023/12/21 09:13:08;;;;;;;15.20;13.50;;;;;;;6.00;100.00;98992.39;86937;271;136098;-73
2023/12/21 09:15:10;;;;;;;18.60;12.10;;;;;;;6.06;100.00;98988.00;87065;271;25189;-71
2023/12/21 09:17:14;;;;;;;15.00;11.80;;;;;;;6.12;100.00;98985.22;86855;268;139336;-72
2023/12/21 09:19:16;;;;;;;14.20;11.30;;;;;;;6.19;100.00;98976.77;86967;279;25096;-71
2023/12/21 09:21:18;;;;;;;14.20;11.60;;;;;;;6.25;100.00;98974.69;86874;276;136982;-72
2023/12/21 09:23:20;;;;;;;14.50;10.20;;;;;;;6.25;99.04;98972.00;86918;272;22644;-70
2023/12/21 09:25:22;;;;;;;15.50;11.10;;;;;;;6.21;98.72;98966.69;86969;271;136202;-72
2023/12/21 09:27:24;;;;;;;16.90;11.60;;;;;;;6.15;98.89;98965.66;87143;271;22565;-72
2023/12/21 09:29:26;;;;;;;12.30;10.90;;;;;;;6.12;99.49;98965.16;87003;279;136040;-70
2023/12/21 09:31:28;;;;;;;14.00;11.30;;;;;;;6.10;98.93;98964.98;87075;276;22568;-73
2023/12/21 09:33:33;;;;;;;13.20;11.60;;;;;;;6.03;98.99;98960.38;89226;275;135922;-71
2023/12/21 09:35:35;;;;;;;;;;;;;;;6.07;99.19;98958.77;87979;271;25194;-72
2023/12/21 09:37:37;;;;;;;16.00;11.30;;;;;;;6.12;99.19;98956.54;86840;278;123218;-71